sensor_id;sensor_type;location;lat;lon;timestamp;pressure;altitude;pressure_sealevel;temperature;humidity
40872;BME280;26591;43.264;26.940;2023-04-22T00:02:05;98679.72;;;12.27;67.11
40872;BME280;26591;43.264;26.940;2023-04-22T00:04:31;98683.38;;;12.26;67.23
40872;BME280;26591;43.264;26.940;2023-04-22T00:06:59;98686.75;;;12.35;67.46
40872;BME280;26591;43.264;26.940;2023-04-22T00:09:25;98681.00;;;12.31;67.61
40872;BME280;26591;43.264;26.940;2023-04-22T00:11:51;98684.75;;;12.37;67.40
40872;BME280;26591;43.264;26.940;2023-04-22T00:14:17;98694.31;;;12.53;67.52
40872;BME280;26591;43.264;26.940;2023-04-22T00:16:45;98687.75;;;12.71;66.76
40872;BME280;26591;43.264;26.940;2023-04-22T00:19:10;98693.78;;;12.79;66.47
40872;BME280;26591;43.264;26.940;2023-04-22T00:21:36;98684.91;;;12.72;66.73
40872;BME280;26591;43.264;26.940;2023-04-22T00:24:01;98678.50;;;12.45;66.86
40872;BME280;26591;43.264;26.940;2023-04-22T00:26:27;98681.25;;;12.51;67.51
40872;BME280;26591;43.264;26.940;2023-04-22T00:28:53;98682.53;;;12.41;67.65
40872;BME280;26591;43.264;26.940;2023-04-22T00:31:22;98680.75;;;12.26;68.17
40872;BME280;26591;43.264;26.940;2023-04-22T00:33:50;98685.97;;;12.34;68.10
40872;BME280;26591;43.264;26.940;2023-04-22T00:36:16;98680.84;;;12.18;68.15
40872;BME280;26591;43.264;26.940;2023-04-22T00:38:46;98682.50;;;12.19;68.44
40872;BME280;26591;43.264;26.940;2023-04-22T00:41:13;98679.44;;;12.37;67.92
40872;BME280;26591;43.264;26.940;2023-04-22T00:43:38;98679.00;;;12.33;67.67
40872;BME280;26591;43.264;26.940;2023-04-22T00:46:05;98680.03;;;12.54;67.18
40872;BME280;26591;43.264;26.940;2023-04-22T00:48:37;98678.72;;;12.65;66.37
40872;BME280;26591;43.264;26.940;2023-04-22T00:51:03;98681.50;;;12.57;66.99
40872;BME280;26591;43.264;26.940;2023-04-22T00:53:29;98682.47;;;12.34;67.56
40872;BME280;26591;43.264;26.940;2023-04-22T00:56:00;98681.53;;;12.42;67.35
40872;BME280;26591;43.264;26.940;2023-04-22T00:58:27;98676.16;;;12.35;68.01
40872;BME280;26591;43.264;26.940;2023-04-22T01:00:53;98681.53;;;12.42;67.83
40872;BME280;26591;43.264;26.940;2023-04-22T01:03:19;98682.75;;;12.39;67.81
40872;BME280;26591;43.264;26.940;2023-04-22T01:05:48;98686.03;;;12.41;68.16
40872;BME280;26591;43.264;26.940;2023-04-22T01:08:14;98677.06;;;12.42;68.22
40872;BME280;26591;43.264;26.940;2023-04-22T01:10:40;98681.16;;;12.45;68.09
40872;BME280;26591;43.264;26.940;2023-04-22T01:13:07;98680.41;;;12.51;68.17
40872;BME280;26591;43.264;26.940;2023-04-22T01:15:32;98674.63;;;12.62;67.61
40872;BME280;26591;43.264;26.940;2023-04-22T01:17:58;98677.75;;;12.51;67.87
40872;BME280;26591;43.264;26.940;2023-04-22T01:20:26;98673.63;;;12.63;67.63
40872;BME280;26591;43.264;26.940;2023-04-22T01:22:54;98667.28;;;12.64;67.37
40872;BME280;26591;43.264;26.940;2023-04-22T01:25:23;98664.00;;;12.62;66.71
40872;BME280;26591;43.264;26.940;2023-04-22T01:27:49;98663.81;;;12.64;66.70
40872;BME280;26591;43.264;26.940;2023-04-22T01:30:15;98664.38;;;12.59;66.61
40872;BME280;26591;43.264;26.940;2023-04-22T01:32:41;98665.81;;;12.62;66.62
40872;BME280;26591;43.264;26.940;2023-04-22T01:35:07;98666.25;;;12.44;66.46
40872;BME280;26591;43.264;26.940;2023-04-22T01:37:33;98671.13;;;12.40;67.17
40872;BME280;26591;43.264;26.940;2023-04-22T01:39:59;98663.03;;;12.48;66.93
40872;BME280;26591;43.264;26.940;2023-04-22T01:42:25;98663.03;;;12.48;67.05
40872;BME280;26591;43.264;26.940;2023-04-22T01:44:51;98664.94;;;12.55;66.66
40872;BME280;26591;43.264;26.940;2023-04-22T01:47:16;98665.38;;;12.21;66.98
40872;BME280;26591;43.264;26.940;2023-04-22T01:49:42;98664.75;;;12.19;66.63
40872;BME280;26591;43.264;26.940;2023-04-22T01:52:07;98662.16;;;12.41;66.42
40872;BME280;26591;43.264;26.940;2023-04-22T01:54:33;98659.50;;;12.41;66.15
40872;BME280;26591;43.264;26.940;2023-04-22T01:56:59;98660.94;;;12.44;66.01
40872;BME280;26591;43.264;26.940;2023-04-22T01:59:27;98657.44;;;12.43;66.06
40872;BME280;26591;43.264;26.940;2023-04-22T02:01:52;98657.06;;;12.46;66.20
40872;BME280;26591;43.264;26.940;2023-04-22T02:04:18;98651.97;;;12.45;66.20
40872;BME280;26591;43.264;26.940;2023-04-22T02:06:43;98658.28;;;12.44;66.09
40872;BME280;26591;43.264;26.940;2023-04-22T02:09:11;98658.13;;;12.30;66.15
40872;BME280;26591;43.264;26.940;2023-04-22T02:11:37;98665.28;;;11.85;68.25
40872;BME280;26591;43.264;26.940;2023-04-22T02:14:03;98661.34;;;11.51;69.52
40872;BME280;26591;43.264;26.940;2023-04-22T02:16:28;98664.38;;;11.63;69.85
40872;BME280;26591;43.264;26.940;2023-04-22T02:18:54;98659.19;;;11.69;69.40
40872;BME280;26591;43.264;26.940;2023-04-22T02:21:19;98658.94;;;10.88;73.01
40872;BME280;26591;43.264;26.940;2023-04-22T02:23:45;98661.66;;;11.18;72.86
40872;BME280;26591;43.264;26.940;2023-04-22T02:26:11;98664.25;;;11.26;73.05
40872;BME280;26591;43.264;26.940;2023-04-22T02:28:36;98672.91;;;11.20;72.47
40872;BME280;26591;43.264;26.940;2023-04-22T02:31:02;98668.09;;;11.23;72.53
40872;BME280;26591;43.264;26.940;2023-04-22T02:33:27;98673.50;;;11.30;72.10
40872;BME280;26591;43.264;26.940;2023-04-22T02:35:53;98672.91;;;11.20;72.39
40872;BME280;26591;43.264;26.940;2023-04-22T02:38:18;98669.44;;;11.19;72.05
40872;BME280;26591;43.264;26.940;2023-04-22T02:40:44;98672.00;;;11.27;72.12
40872;BME280;26591;43.264;26.940;2023-04-22T02:43:09;98664.25;;;11.26;72.13
40872;BME280;26591;43.264;26.940;2023-04-22T02:45:35;98669.34;;;11.27;71.86
40872;BME280;26591;43.264;26.940;2023-04-22T02:48:03;98670.19;;;11.28;71.64
40872;BME280;26591;43.264;26.940;2023-04-22T02:50:28;98666.34;;;11.16;72.37
40872;BME280;26591;43.264;26.940;2023-04-22T02:52:54;98669.25;;;11.21;72.26
40872;BME280;26591;43.264;26.940;2023-04-22T02:55:19;98674.66;;;11.27;72.26
40872;BME280;26591;43.264;26.940;2023-04-22T02:57:46;98665.78;;;11.20;71.66
40872;BME280;26591;43.264;26.940;2023-04-22T03:00:12;98668.97;;;11.16;72.34
40872;BME280;26591;43.264;26.940;2023-04-22T03:02:38;98666.59;;;11.21;71.87
40872;BME280;26591;43.264;26.940;2023-04-22T03:05:04;98667.91;;;11.25;71.93
40872;BME280;26591;43.264;26.940;2023-04-22T03:07:29;98662.13;;;11.21;71.63
40872;BME280;26591;43.264;26.940;2023-04-22T03:10:10;98664.94;;;11.20;71.27
40872;BME280;26591;43.264;26.940;2023-04-22T03:12:35;98664.44;;;11.24;71.54
40872;BME280;26591;43.264;26.940;2023-04-22T03:15:01;98670.19;;;11.28;71.38
40872;BME280;26591;43.264;26.940;2023-04-22T03:17:26;98674.28;;;11.16;71.50
40872;BME280;26591;43.264;26.940;2023-04-22T03:19:52;98678.28;;;10.88;71.77
40872;BME280;26591;43.264;26.940;2023-04-22T03:22:18;98677.63;;;10.86;72.64
40872;BME280;26591;43.264;26.940;2023-04-22T03:24:43;98674.00;;;10.87;72.97
40872;BME280;26591;43.264;26.940;2023-04-22T03:27:09;98680.81;;;11.05;72.96
40872;BME280;26591;43.264;26.940;2023-04-22T03:29:35;98679.25;;;10.95;72.19
40872;BME280;26591;43.264;26.940;2023-04-22T03:32:00;98690.91;;;10.55;72.71
40872;BME280;26591;43.264;26.940;2023-04-22T03:34:26;98686.69;;;10.37;73.35
40872;BME280;26591;43.264;26.940;2023-04-22T03:36:51;98692.31;;;10.42;73.01
40872;BME280;26591;43.264;26.940;2023-04-22T03:39:17;98698.53;;;10.49;73.35
40872;BME280;26591;43.264;26.940;2023-04-22T03:41:42;98700.78;;;10.61;73.33
40872;BME280;26591;43.264;26.940;2023-04-22T03:44:08;98695.41;;;10.77;73.55
40872;BME280;26591;43.264;26.940;2023-04-22T03:46:33;98697.50;;;11.28;73.24
40872;BME280;26591;43.264;26.940;2023-04-22T03:48:59;98718.09;;;12.25;78.68
40872;BME280;26591;43.264;26.940;2023-04-22T03:51:24;98718.56;;;12.87;76.74
40872;BME280;26591;43.264;26.940;2023-04-22T03:53:50;98717.59;;;13.60;72.12
40872;BME280;26591;43.264;26.940;2023-04-22T03:56:15;98723.31;;;13.92;66.98
40872;BME280;26591;43.264;26.940;2023-04-22T03:58:41;98727.59;;;13.57;65.11
40872;BME280;26591;43.264;26.940;2023-04-22T04:01:06;98722.09;;;13.37;64.68
40872;BME280;26591;43.264;26.940;2023-04-22T04:03:32;98722.72;;;13.39;64.64
40872;BME280;26591;43.264;26.940;2023-04-22T04:05:57;98729.00;;;13.10;64.70
40872;BME280;26591;43.264;26.940;2023-04-22T04:08:23;98730.97;;;13.23;64.66
40872;BME280;26591;43.264;26.940;2023-04-22T04:10:48;98737.22;;;13.37;65.23
40872;BME280;26591;43.264;26.940;2023-04-22T04:13:14;98739.88;;;13.58;65.87
40872;BME280;26591;43.264;26.940;2023-04-22T04:15:40;98738.72;;;14.03;64.59
40872;BME280;26591;43.264;26.940;2023-04-22T04:18:06;98750.94;;;14.74;63.17
40872;BME280;26591;43.264;26.940;2023-04-22T04:20:31;98755.56;;;15.34;61.48
40872;BME280;26591;43.264;26.940;2023-04-22T04:22:57;98756.81;;;15.72;59.79
40872;BME280;26591;43.264;26.940;2023-04-22T04:25:22;98762.31;;;16.17;58.29
40872;BME280;26591;43.264;26.940;2023-04-22T04:27:48;98759.38;;;16.39;56.28
40872;BME280;26591;43.264;26.940;2023-04-22T04:30:16;98770.22;;;16.51;55.41
40872;BME280;26591;43.264;26.940;2023-04-22T04:32:45;98772.53;;;16.34;55.25
40872;BME280;26591;43.264;26.940;2023-04-22T04:35:11;98779.59;;;16.01;55.35
40872;BME280;26591;43.264;26.940;2023-04-22T04:37:41;98781.22;;;15.82;55.11
40872;BME280;26591;43.264;26.940;2023-04-22T04:40:07;98785.94;;;15.67;55.90
40872;BME280;26591;43.264;26.940;2023-04-22T04:42:34;98783.28;;;15.47;56.55
40872;BME280;26591;43.264;26.940;2023-04-22T04:45:24;98787.75;;;15.13;57.67
40872;BME280;26591;43.264;26.940;2023-04-22T04:47:50;98784.47;;;15.04;57.65
40872;BME280;26591;43.264;26.940;2023-04-22T04:50:20;98795.03;;;14.77;58.14
40872;BME280;26591;43.264;26.940;2023-04-22T04:52:49;98799.84;;;14.67;58.30
40872;BME280;26591;43.264;26.940;2023-04-22T04:55:15;98791.72;;;14.33;59.86
40872;BME280;26591;43.264;26.940;2023-04-22T04:57:44;98803.69;;;14.15;60.59
40872;BME280;26591;43.264;26.940;2023-04-22T05:00:10;98796.41;;;14.31;60.03
40872;BME280;26591;43.264;26.940;2023-04-22T05:02:36;98801.63;;;14.11;59.76
40872;BME280;26591;43.264;26.940;2023-04-22T05:05:02;98808.97;;;14.09;59.96
40872;BME280;26591;43.264;26.940;2023-04-22T05:07:27;98802.59;;;14.03;60.79
40872;BME280;26591;43.264;26.940;2023-04-22T05:09:53;98804.50;;;14.09;61.00
40872;BME280;26591;43.264;26.940;2023-04-22T05:12:18;98812.56;;;13.94;61.41
40872;BME280;26591;43.264;26.940;2023-04-22T05:14:44;98804.44;;;14.02;60.85
40872;BME280;26591;43.264;26.940;2023-04-22T05:17:11;98807.38;;;13.86;62.01
40872;BME280;26591;43.264;26.940;2023-04-22T05:19:37;98817.28;;;13.99;61.45
40872;BME280;26591;43.264;26.940;2023-04-22T05:22:02;98805.59;;;13.93;62.16
40872;BME280;26591;43.264;26.940;2023-04-22T05:24:28;98815.47;;;13.99;61.85
40872;BME280;26591;43.264;26.940;2023-04-22T05:26:53;98811.03;;;14.13;62.25
40872;BME280;26591;43.264;26.940;2023-04-22T05:29:19;98811.97;;;14.27;62.61
40872;BME280;26591;43.264;26.940;2023-04-22T05:31:44;98811.84;;;14.49;61.11
40872;BME280;26591;43.264;26.940;2023-04-22T05:34:10;98809.97;;;14.78;60.00
40872;BME280;26591;43.264;26.940;2023-04-22T05:37:13;98815.44;;;15.12;59.01
40872;BME280;26591;43.264;26.940;2023-04-22T05:39:39;98820.19;;;15.30;58.17
40872;BME280;26591;43.264;26.940;2023-04-22T05:42:04;98822.25;;;15.54;57.91
40872;BME280;26591;43.264;26.940;2023-04-22T05:44:30;98824.53;;;15.78;57.31
40872;BME280;26591;43.264;26.940;2023-04-22T05:46:56;98834.16;;;16.26;57.01
40872;BME280;26591;43.264;26.940;2023-04-22T05:49:21;98831.94;;;16.88;54.63
40872;BME280;26591;43.264;26.940;2023-04-22T05:51:46;98830.09;;;17.92;53.72
40872;BME280;26591;43.264;26.940;2023-04-22T05:54:12;98826.88;;;19.01;50.82
40872;BME280;26591;43.264;26.940;2023-04-22T05:56:37;98829.03;;;20.08;47.11
40872;BME280;26591;43.264;26.940;2023-04-22T05:59:03;98829.72;;;20.39;45.15
40872;BME280;26591;43.264;26.940;2023-04-22T06:01:28;98825.22;;;20.80;43.71
40872;BME280;26591;43.264;26.940;2023-04-22T06:03:54;98825.78;;;20.94;44.06
40872;BME280;26591;43.264;26.940;2023-04-22T06:06:20;98825.28;;;20.97;41.17
40872;BME280;26591;43.264;26.940;2023-04-22T06:08:45;98829.88;;;21.14;41.46
40872;BME280;26591;43.264;26.940;2023-04-22T06:11:11;98842.91;;;21.34;40.16
40872;BME280;26591;43.264;26.940;2023-04-22T06:13:36;98854.97;;;21.77;41.48
40872;BME280;26591;43.264;26.940;2023-04-22T06:16:02;98844.16;;;22.29;39.95
40872;BME280;26591;43.264;26.940;2023-04-22T06:18:29;98847.38;;;22.87;39.67
40872;BME280;26591;43.264;26.940;2023-04-22T06:20:56;98849.13;;;23.48;38.26
40872;BME280;26591;43.264;26.940;2023-04-22T06:23:22;98851.28;;;24.11;37.74
40872;BME280;26591;43.264;26.940;2023-04-22T06:25:47;98855.78;;;24.43;36.51
40872;BME280;26591;43.264;26.940;2023-04-22T06:28:13;98854.47;;;23.75;36.01
40872;BME280;26591;43.264;26.940;2023-04-22T06:30:38;98857.47;;;23.46;36.46
40872;BME280;26591;43.264;26.940;2023-04-22T06:33:04;98865.59;;;22.01;43.33
40872;BME280;26591;43.264;26.940;2023-04-22T06:35:30;98865.00;;;21.07;45.26
40872;BME280;26591;43.264;26.940;2023-04-22T06:37:55;98872.59;;;20.57;47.21
40872;BME280;26591;43.264;26.940;2023-04-22T06:40:21;98868.28;;;20.21;47.35
40872;BME280;26591;43.264;26.940;2023-04-22T06:42:46;98877.03;;;19.31;49.72
40872;BME280;26591;43.264;26.940;2023-04-22T06:45:12;98875.22;;;19.13;50.52
40872;BME280;26591;43.264;26.940;2023-04-22T06:47:38;98880.16;;;18.98;52.15
40872;BME280;26591;43.264;26.940;2023-04-22T06:50:06;98883.13;;;19.69;50.15
40872;BME280;26591;43.264;26.940;2023-04-22T06:52:31;98887.47;;;19.82;49.02
40872;BME280;26591;43.264;26.940;2023-04-22T06:54:57;98880.06;;;18.86;45.10
40872;BME280;26591;43.264;26.940;2023-04-22T06:57:22;98880.38;;;18.78;44.11
40872;BME280;26591;43.264;26.940;2023-04-22T06:59:48;98881.56;;;18.63;42.21
40872;BME280;26591;43.264;26.940;2023-04-22T07:02:13;98887.47;;;18.28;43.86
40872;BME280;26591;43.264;26.940;2023-04-22T07:04:39;98879.47;;;18.21;43.50
40872;BME280;26591;43.264;26.940;2023-04-22T07:07:04;98882.88;;;18.35;44.11
40872;BME280;26591;43.264;26.940;2023-04-22T07:09:30;98885.88;;;18.64;43.53
40872;BME280;26591;43.264;26.940;2023-04-22T07:11:56;98891.50;;;18.56;43.49
40872;BME280;26591;43.264;26.940;2023-04-22T07:14:24;98897.13;;;18.73;43.45
40872;BME280;26591;43.264;26.940;2023-04-22T07:16:51;98888.56;;;18.64;43.15
40872;BME280;26591;43.264;26.940;2023-04-22T07:19:16;98896.00;;;18.62;43.00
40872;BME280;26591;43.264;26.940;2023-04-22T07:21:42;98900.47;;;18.87;42.39
40872;BME280;26591;43.264;26.940;2023-04-22T07:24:07;98895.34;;;18.85;42.28
40872;BME280;26591;43.264;26.940;2023-04-22T07:26:36;98898.44;;;18.64;42.43
40872;BME280;26591;43.264;26.940;2023-04-22T07:29:02;98897.44;;;19.02;42.17
40872;BME280;26591;43.264;26.940;2023-04-22T07:31:28;98904.50;;;19.15;42.31
40872;BME280;26591;43.264;26.940;2023-04-22T07:33:56;98907.91;;;19.41;41.92
40872;BME280;26591;43.264;26.940;2023-04-22T07:36:21;98904.91;;;19.30;41.54
40872;BME280;26591;43.264;26.940;2023-04-22T07:38:47;98910.75;;;18.90;42.12
40872;BME280;26591;43.264;26.940;2023-04-22T07:41:12;98911.44;;;18.16;43.89
40872;BME280;26591;43.264;26.940;2023-04-22T07:43:38;98908.31;;;18.44;44.16
40872;BME280;26591;43.264;26.940;2023-04-22T07:46:03;98917.19;;;19.08;43.55
40872;BME280;26591;43.264;26.940;2023-04-22T07:48:29;98918.78;;;18.71;42.61
40872;BME280;26591;43.264;26.940;2023-04-22T07:50:54;98920.41;;;18.72;43.30
40872;BME280;26591;43.264;26.940;2023-04-22T07:53:20;98918.47;;;18.61;43.06
40872;BME280;26591;43.264;26.940;2023-04-22T07:56:13;98916.03;;;18.59;43.07
40872;BME280;26591;43.264;26.940;2023-04-22T07:58:39;98917.16;;;18.26;43.19
40872;BME280;26591;43.264;26.940;2023-04-22T08:01:04;98919.00;;;18.26;43.98
40872;BME280;26591;43.264;26.940;2023-04-22T08:03:30;98925.25;;;18.45;44.40
40872;BME280;26591;43.264;26.940;2023-04-22T08:05:55;98919.81;;;18.70;42.56
40872;BME280;26591;43.264;26.940;2023-04-22T08:08:23;98922.53;;;19.26;42.08
40872;BME280;26591;43.264;26.940;2023-04-22T08:10:49;98921.00;;;19.30;41.95
40872;BME280;26591;43.264;26.940;2023-04-22T08:13:14;98922.47;;;19.45;41.73
40872;BME280;26591;43.264;26.940;2023-04-22T08:15:40;98929.44;;;19.34;42.44
40872;BME280;26591;43.264;26.940;2023-04-22T08:18:08;98927.75;;;19.82;41.26
40872;BME280;26591;43.264;26.940;2023-04-22T08:20:36;98933.78;;;19.16;41.93
40872;BME280;26591;43.264;26.940;2023-04-22T08:23:01;98933.00;;;18.90;42.85
40872;BME280;26591;43.264;26.940;2023-04-22T08:25:27;98936.84;;;19.01;42.81
40872;BME280;26591;43.264;26.940;2023-04-22T08:27:52;98935.19;;;19.00;41.87
40872;BME280;26591;43.264;26.940;2023-04-22T08:30:18;98925.75;;;19.47;41.90
40872;BME280;26591;43.264;26.940;2023-04-22T08:32:43;98936.13;;;19.74;40.97
40872;BME280;26591;43.264;26.940;2023-04-22T08:35:10;98929.69;;;19.63;41.72
40872;BME280;26591;43.264;26.940;2023-04-22T08:37:35;98927.16;;;19.80;41.42
40872;BME280;26591;43.264;26.940;2023-04-22T08:40:01;98931.06;;;19.96;41.54
40872;BME280;26591;43.264;26.940;2023-04-22T08:42:27;98928.69;;;19.45;41.92
40872;BME280;26591;43.264;26.940;2023-04-22T08:44:55;98930.44;;;19.51;41.37
40872;BME280;26591;43.264;26.940;2023-04-22T08:47:21;98929.91;;;19.92;40.64
40872;BME280;26591;43.264;26.940;2023-04-22T08:50:01;98927.91;;;19.87;40.93
40872;BME280;26591;43.264;26.940;2023-04-22T08:52:29;98924.63;;;19.85;41.65
40872;BME280;26591;43.264;26.940;2023-04-22T08:54:55;98924.69;;;20.33;40.23
40872;BME280;26591;43.264;26.940;2023-04-22T08:57:20;98934.03;;;20.06;40.95
40872;BME280;26591;43.264;26.940;2023-04-22T08:59:47;98919.38;;;19.29;42.55
40872;BME280;26591;43.264;26.940;2023-04-22T09:02:18;98920.16;;;18.99;41.84
40872;BME280;26591;43.264;26.940;2023-04-22T09:04:46;98920.44;;;18.91;42.87
40872;BME280;26591;43.264;26.940;2023-04-22T09:07:20;98928.78;;;19.20;42.36
40872;BME280;26591;43.264;26.940;2023-04-22T09:09:47;98923.34;;;19.27;41.83
40872;BME280;26591;43.264;26.940;2023-04-22T09:12:15;98924.47;;;19.49;41.74
40872;BME280;26591;43.264;26.940;2023-04-22T09:14:44;98922.22;;;19.16;40.69
40872;BME280;26591;43.264;26.940;2023-04-22T09:17:10;98909.41;;;18.99;39.87
40872;BME280;26591;43.264;26.940;2023-04-22T09:19:36;98912.09;;;18.99;40.93
40872;BME280;26591;43.264;26.940;2023-04-22T09:22:04;98908.88;;;18.90;41.27
40872;BME280;26591;43.264;26.940;2023-04-22T09:24:29;98902.75;;;19.39;41.35
40872;BME280;26591;43.264;26.940;2023-04-22T09:26:55;98901.91;;;19.69;40.63
40872;BME280;26591;43.264;26.940;2023-04-22T09:29:21;98902.69;;;19.88;39.31
40872;BME280;26591;43.264;26.940;2023-04-22T09:31:56;98902.50;;;20.25;39.14
40872;BME280;26591;43.264;26.940;2023-04-22T09:34:21;98904.31;;;19.89;39.07
40872;BME280;26591;43.264;26.940;2023-04-22T09:36:49;98890.47;;;19.62;39.74
40872;BME280;26591;43.264;26.940;2023-04-22T09:39:16;98902.75;;;19.20;39.61
40872;BME280;26591;43.264;26.940;2023-04-22T09:41:41;98899.41;;;18.51;40.63
40872;BME280;26591;43.264;26.940;2023-04-22T09:44:15;98888.97;;;18.42;41.49
40872;BME280;26591;43.264;26.940;2023-04-22T09:46:43;98894.28;;;18.24;41.88
40872;BME280;26591;43.264;26.940;2023-04-22T09:49:08;98906.28;;;17.89;42.42
40872;BME280;26591;43.264;26.940;2023-04-22T09:51:34;98896.16;;;17.98;41.71
40872;BME280;26591;43.264;26.940;2023-04-22T09:54:05;98895.09;;;18.50;42.03
40872;BME280;26591;43.264;26.940;2023-04-22T09:56:47;98893.69;;;18.84;41.12
40872;BME280;26591;43.264;26.940;2023-04-22T09:59:24;98887.97;;;18.99;40.21
40872;BME280;26591;43.264;26.940;2023-04-22T10:02:07;98894.28;;;19.24;37.27
40872;BME280;26591;43.264;26.940;2023-04-22T10:04:33;98885.84;;;19.50;37.21
40872;BME280;26591;43.264;26.940;2023-04-22T10:07:00;98884.25;;;19.00;38.29
40872;BME280;26591;43.264;26.940;2023-04-22T10:09:30;98889.03;;;19.59;37.43
40872;BME280;26591;43.264;26.940;2023-04-22T10:12:07;98887.69;;;19.80;37.40
40872;BME280;26591;43.264;26.940;2023-04-22T10:14:33;98883.25;;;19.86;36.56
40872;BME280;26591;43.264;26.940;2023-04-22T10:17:00;98886.16;;;19.73;36.83
40872;BME280;26591;43.264;26.940;2023-04-22T10:19:27;98876.94;;;19.69;36.71
40872;BME280;26591;43.264;26.940;2023-04-22T10:21:59;98895.22;;;19.90;36.68
40872;BME280;26591;43.264;26.940;2023-04-22T10:24:34;98882.63;;;20.03;36.81
40872;BME280;26591;43.264;26.940;2023-04-22T10:27:02;98881.34;;;20.17;36.41
40872;BME280;26591;43.264;26.940;2023-04-22T10:29:38;98874.00;;;20.36;35.97
40872;BME280;26591;43.264;26.940;2023-04-22T10:32:22;98881.34;;;20.17;35.92
40872;BME280;26591;43.264;26.940;2023-04-22T10:35:06;98867.94;;;20.05;35.37
40872;BME280;26591;43.264;26.940;2023-04-22T10:37:33;98867.72;;;19.64;36.19
40872;BME280;26591;43.264;26.940;2023-04-22T10:40:16;98863.53;;;19.69;35.29
40872;BME280;26591;43.264;26.940;2023-04-22T10:42:48;98860.91;;;19.92;35.52
40872;BME280;26591;43.264;26.940;2023-04-22T10:45:24;98856.50;;;20.22;34.93
40872;BME280;26591;43.264;26.940;2023-04-22T10:47:50;98851.56;;;20.54;35.02
40872;BME280;26591;43.264;26.940;2023-04-22T10:55:50;98856.03;;;21.01;34.67
40872;BME280;26591;43.264;26.940;2023-04-22T10:58:19;98852.84;;;21.33;34.32
40872;BME280;26591;43.264;26.940;2023-04-22T11:00:45;98854.81;;;21.09;34.94
40872;BME280;26591;43.264;26.940;2023-04-22T11:03:13;98848.03;;;20.54;35.64
40872;BME280;26591;43.264;26.940;2023-04-22T11:05:40;98859.41;;;19.96;36.89
40872;BME280;26591;43.264;26.940;2023-04-22T11:08:19;98856.25;;;20.00;37.31
40872;BME280;26591;43.264;26.940;2023-04-22T11:10:49;98861.34;;;19.89;37.51
40872;BME280;26591;43.264;26.940;2023-04-22T11:13:15;98858.16;;;19.69;37.53
40872;BME280;26591;43.264;26.940;2023-04-22T11:15:43;98862.78;;;19.92;37.67
40872;BME280;26591;43.264;26.940;2023-04-22T11:18:15;98859.50;;;19.90;38.10
40872;BME280;26591;43.264;26.940;2023-04-22T11:20:42;98865.25;;;20.41;39.17
40872;BME280;26591;43.264;26.940;2023-04-22T11:23:07;98859.88;;;20.41;37.37
40872;BME280;26591;43.264;26.940;2023-04-22T11:25:33;98861.41;;;20.13;38.40
40872;BME280;26591;43.264;26.940;2023-04-22T11:27:59;98864.34;;;19.81;37.94
40872;BME280;26591;43.264;26.940;2023-04-22T11:30:36;98863.13;;;19.95;38.20
40872;BME280;26591;43.264;26.940;2023-04-22T11:33:02;98862.44;;;20.12;37.89
40872;BME280;26591;43.264;26.940;2023-04-22T11:35:30;98864.94;;;20.66;38.54
40872;BME280;26591;43.264;26.940;2023-04-22T11:38:05;98849.25;;;20.34;37.91
40872;BME280;26591;43.264;26.940;2023-04-22T11:40:41;98860.75;;;20.70;37.88
40872;BME280;26591;43.264;26.940;2023-04-22T11:43:08;98862.97;;;20.62;38.43
40872;BME280;26591;43.264;26.940;2023-04-22T11:45:35;98869.19;;;20.62;37.95
40872;BME280;26591;43.264;26.940;2023-04-22T11:48:02;98850.91;;;21.00;37.50
40872;BME280;26591;43.264;26.940;2023-04-22T11:50:31;98856.50;;;20.98;37.66
40872;BME280;26591;43.264;26.940;2023-04-22T11:53:11;98857.38;;;20.75;37.03
40872;BME280;26591;43.264;26.940;2023-04-22T11:55:37;98860.75;;;19.87;38.02
40872;BME280;26591;43.264;26.940;2023-04-22T11:58:07;98855.28;;;19.94;38.11
40872;BME280;26591;43.264;26.940;2023-04-22T12:00:34;98856.41;;;19.74;38.53
40872;BME280;26591;43.264;26.940;2023-04-22T12:03:08;98856.97;;;19.64;37.12
40872;BME280;26591;43.264;26.940;2023-04-22T12:05:40;98852.38;;;20.07;37.40
40872;BME280;26591;43.264;26.940;2023-04-22T12:08:14;98853.53;;;20.47;37.01
40872;BME280;26591;43.264;26.940;2023-04-22T12:16:18;98849.63;;;21.19;37.46
40872;BME280;26591;43.264;26.940;2023-04-22T12:18:52;98846.44;;;21.52;36.53
40872;BME280;26591;43.264;26.940;2023-04-22T12:21:19;98848.13;;;21.41;36.33
40872;BME280;26591;43.264;26.940;2023-04-22T12:23:50;98844.91;;;21.10;37.17
40872;BME280;26591;43.264;26.940;2023-04-22T12:26:18;98840.34;;;20.57;37.08
40872;BME280;26591;43.264;26.940;2023-04-22T12:28:45;98839.38;;;20.52;37.09
40872;BME280;26591;43.264;26.940;2023-04-22T12:31:11;98840.22;;;20.40;37.97
40872;BME280;26591;43.264;26.940;2023-04-22T12:33:38;98834.91;;;20.81;37.11
40872;BME280;26591;43.264;26.940;2023-04-22T12:36:04;98839.97;;;20.54;36.94
40872;BME280;26591;43.264;26.940;2023-04-22T12:38:30;98827.78;;;20.75;36.52
40872;BME280;26591;43.264;26.940;2023-04-22T12:40:57;98823.75;;;20.37;37.78
40872;BME280;26591;43.264;26.940;2023-04-22T12:43:22;98834.38;;;20.43;38.65
40872;BME280;26591;43.264;26.940;2023-04-22T12:45:48;98847.69;;;20.03;38.57
40872;BME280;26591;43.264;26.940;2023-04-22T12:48:14;98830.75;;;19.90;39.38
40872;BME280;26591;43.264;26.940;2023-04-22T12:50:39;98845.16;;;20.08;39.20
40872;BME280;26591;43.264;26.940;2023-04-22T12:53:05;98825.34;;;19.66;38.18
40872;BME280;26591;43.264;26.940;2023-04-22T12:55:31;98829.44;;;19.81;38.20
40872;BME280;26591;43.264;26.940;2023-04-22T12:57:56;98828.22;;;19.95;38.45
40872;BME280;26591;43.264;26.940;2023-04-22T13:00:22;98829.16;;;20.01;38.99
40872;BME280;26591;43.264;26.940;2023-04-22T13:02:49;98835.31;;;20.49;38.64